sensor_id;sensor_type;location;lat;lon;timestamp;temperature;humidity
21306;DHT22;10812;51.838;5.838;2023-04-25T00:02:04;5.70;99.90
21306;DHT22;10812;51.838;5.838;2023-04-25T00:04:33;5.70;99.90
21306;DHT22;10812;51.838;5.838;2023-04-25T00:07:02;5.70;99.90
21306;DHT22;10812;51.838;5.838;2023-04-25T00:09:31;5.80;99.90
21306;DHT22;10812;51.838;5.838;2023-04-25T00:11:59;5.70;99.90
21306;DHT22;10812;51.838;5.838;2023-04-25T00:14:29;5.70;99.90
21306;DHT22;10812;51.838;5.838;2023-04-25T00:17:00;5.60;99.90
21306;DHT22;10812;51.838;5.838;2023-04-25T00:19:29;5.60;99.90
21306;DHT22;10812;51.838;5.838;2023-04-25T00:21:57;5.60;99.90
21306;DHT22;10812;51.838;5.838;2023-04-25T00:24:25;5.50;99.90
21306;DHT22;10812;51.838;5.838;2023-04-25T00:26:53;5.40;99.90
21306;DHT22;10812;51.838;5.838;2023-04-25T00:29:21;5.30;99.90
21306;DHT22;10812;51.838;5.838;2023-04-25T00:31:51;5.20;99.90
21306;DHT22;10812;51.838;5.838;2023-04-25T00:34:19;5.20;99.90
21306;DHT22;10812;51.838;5.838;2023-04-25T00:36:47;5.20;99.90
21306;DHT22;10812;51.838;5.838;2023-04-25T00:39:16;5.10;99.90
21306;DHT22;10812;51.838;5.838;2023-04-25T00:41:45;5.20;99.90
21306;DHT22;10812;51.838;5.838;2023-04-25T00:44:13;5.20;99.90
21306;DHT22;10812;51.838;5.838;2023-04-25T00:46:43;5.30;99.90
21306;DHT22;10812;51.838;5.838;2023-04-25T00:49:13;5.40;99.90
21306;DHT22;10812;51.838;5.838;2023-04-25T00:51:43;5.50;99.90
21306;DHT22;10812;51.838;5.838;2023-04-25T00:54:12;5.60;99.90
21306;DHT22;10812;51.838;5.838;2023-04-25T01:12:07;5.70;99.90
21306;DHT22;10812;51.838;5.838;2023-04-25T01:14:36;5.70;99.90
21306;DHT22;10812;51.838;5.838;2023-04-25T01:17:04;5.70;99.90
21306;DHT22;10812;51.838;5.838;2023-04-25T01:19:34;5.70;99.90
21306;DHT22;10812;51.838;5.838;2023-04-25T01:22:04;5.70;99.90
21306;DHT22;10812;51.838;5.838;2023-04-25T01:24:32;5.70;99.90
21306;DHT22;10812;51.838;5.838;2023-04-25T01:27:01;5.70;99.90
21306;DHT22;10812;51.838;5.838;2023-04-25T01:29:31;5.60;99.90
21306;DHT22;10812;51.838;5.838;2023-04-25T01:32:00;5.50;99.90
21306;DHT22;10812;51.838;5.838;2023-04-25T01:34:29;5.50;99.90
21306;DHT22;10812;51.838;5.838;2023-04-25T01:36:59;5.40;99.90
21306;DHT22;10812;51.838;5.838;2023-04-25T01:39:29;5.50;99.90
21306;DHT22;10812;51.838;5.838;2023-04-25T01:41:59;5.50;99.90
21306;DHT22;10812;51.838;5.838;2023-04-25T01:44:28;5.50;99.90
21306;DHT22;10812;51.838;5.838;2023-04-25T01:46:56;5.50;99.90
21306;DHT22;10812;51.838;5.838;2023-04-25T01:49:24;5.60;99.90
21306;DHT22;10812;51.838;5.838;2023-04-25T01:51:52;5.60;99.90
21306;DHT22;10812;51.838;5.838;2023-04-25T01:54:21;5.60;99.90
21306;DHT22;10812;51.838;5.838;2023-04-25T01:56:51;5.60;99.90
21306;DHT22;10812;51.838;5.838;2023-04-25T02:03:34;5.60;99.90
21306;DHT22;10812;51.838;5.838;2023-04-25T02:06:03;5.70;99.90
21306;DHT22;10812;51.838;5.838;2023-04-25T02:08:31;5.60;99.90
21306;DHT22;10812;51.838;5.838;2023-04-25T02:11:00;5.60;99.90
21306;DHT22;10812;51.838;5.838;2023-04-25T02:13:31;5.60;99.90
21306;DHT22;10812;51.838;5.838;2023-04-25T02:15:59;5.60;99.90
21306;DHT22;10812;51.838;5.838;2023-04-25T02:18:27;5.50;99.90
21306;DHT22;10812;51.838;5.838;2023-04-25T02:20:56;5.40;99.90
21306;DHT22;10812;51.838;5.838;2023-04-25T02:23:24;5.30;99.90
21306;DHT22;10812;51.838;5.838;2023-04-25T02:25:52;5.20;99.90
21306;DHT22;10812;51.838;5.838;2023-04-25T02:28:22;5.20;99.90
21306;DHT22;10812;51.838;5.838;2023-04-25T02:30:52;5.00;99.90
21306;DHT22;10812;51.838;5.838;2023-04-25T02:33:20;5.00;99.90
21306;DHT22;10812;51.838;5.838;2023-04-25T02:35:48;4.80;99.90
21306;DHT22;10812;51.838;5.838;2023-04-25T02:38:16;4.80;99.90
21306;DHT22;10812;51.838;5.838;2023-04-25T02:40:44;4.70;99.90
21306;DHT22;10812;51.838;5.838;2023-04-25T02:43:13;4.60;99.90
21306;DHT22;10812;51.838;5.838;2023-04-25T02:45:41;4.60;99.90
21306;DHT22;10812;51.838;5.838;2023-04-25T02:48:10;4.40;99.90
21306;DHT22;10812;51.838;5.838;2023-04-25T02:50:38;4.40;99.90
21306;DHT22;10812;51.838;5.838;2023-04-25T02:53:06;4.40;99.90
21306;DHT22;10812;51.838;5.838;2023-04-25T02:55:34;4.30;99.90
21306;DHT22;10812;51.838;5.838;2023-04-25T02:58:03;4.20;99.90
21306;DHT22;10812;51.838;5.838;2023-04-25T03:08:21;4.10;99.90
21306;DHT22;10812;51.838;5.838;2023-04-25T03:10:49;4.00;99.90
21306;DHT22;10812;51.838;5.838;2023-04-25T03:13:18;4.00;99.90
21306;DHT22;10812;51.838;5.838;2023-04-25T03:15:47;3.90;99.90
21306;DHT22;10812;51.838;5.838;2023-04-25T03:18:15;4.00;99.90
21306;DHT22;10812;51.838;5.838;2023-04-25T03:20:43;3.90;99.90
21306;DHT22;10812;51.838;5.838;2023-04-25T03:23:11;3.90;99.90
21306;DHT22;10812;51.838;5.838;2023-04-25T03:25:40;3.80;99.90
21306;DHT22;10812;51.838;5.838;2023-04-25T03:28:09;3.70;99.90
21306;DHT22;10812;51.838;5.838;2023-04-25T03:30:37;3.70;99.90
21306;DHT22;10812;51.838;5.838;2023-04-25T03:33:05;3.70;99.90
21306;DHT22;10812;51.838;5.838;2023-04-25T03:35:33;3.70;99.90
21306;DHT22;10812;51.838;5.838;2023-04-25T03:38:01;3.80;99.90
21306;DHT22;10812;51.838;5.838;2023-04-25T03:40:30;3.70;99.90
21306;DHT22;10812;51.838;5.838;2023-04-25T03:42:59;3.70;99.90
21306;DHT22;10812;51.838;5.838;2023-04-25T03:45:27;3.70;99.90
21306;DHT22;10812;51.838;5.838;2023-04-25T03:47:55;3.70;99.90
21306;DHT22;10812;51.838;5.838;2023-04-25T03:50:24;3.70;99.90
21306;DHT22;10812;51.838;5.838;2023-04-25T03:52:52;3.70;99.90
21306;DHT22;10812;51.838;5.838;2023-04-25T03:55:20;3.70;99.90
21306;DHT22;10812;51.838;5.838;2023-04-25T03:57:48;3.80;99.90
21306;DHT22;10812;51.838;5.838;2023-04-25T04:00:18;3.80;99.90
21306;DHT22;10812;51.838;5.838;2023-04-25T04:02:46;3.90;99.90
21306;DHT22;10812;51.838;5.838;2023-04-25T04:05:14;4.00;99.90
21306;DHT22;10812;51.838;5.838;2023-04-25T04:07:42;4.10;99.90
21306;DHT22;10812;51.838;5.838;2023-04-25T04:10:10;4.10;99.90
21306;DHT22;10812;51.838;5.838;2023-04-25T04:12:39;4.20;99.90
21306;DHT22;10812;51.838;5.838;2023-04-25T04:15:08;4.20;99.90
21306;DHT22;10812;51.838;5.838;2023-04-25T04:17:38;4.20;99.90
21306;DHT22;10812;51.838;5.838;2023-04-25T04:20:08;4.20;99.90
21306;DHT22;10812;51.838;5.838;2023-04-25T04:22:36;4.20;99.90
21306;DHT22;10812;51.838;5.838;2023-04-25T04:25:05;4.10;99.90
21306;DHT22;10812;51.838;5.838;2023-04-25T04:27:33;4.00;99.90
21306;DHT22;10812;51.838;5.838;2023-04-25T04:30:02;4.00;99.90
21306;DHT22;10812;51.838;5.838;2023-04-25T04:32:30;3.90;99.90
21306;DHT22;10812;51.838;5.838;2023-04-25T04:35:03;3.90;99.90
21306;DHT22;10812;51.838;5.838;2023-04-25T04:37:31;3.90;99.90
21306;DHT22;10812;51.838;5.838;2023-04-25T04:40:00;3.90;99.90
21306;DHT22;10812;51.838;5.838;2023-04-25T04:42:32;3.90;99.90
21306;DHT22;10812;51.838;5.838;2023-04-25T04:45:00;4.00;99.90
21306;DHT22;10812;51.838;5.838;2023-04-25T04:47:29;4.20;99.90
21306;DHT22;10812;51.838;5.838;2023-04-25T04:49:58;4.30;99.90
21306;DHT22;10812;51.838;5.838;2023-04-25T04:52:27;4.40;99.90
21306;DHT22;10812;51.838;5.838;2023-04-25T04:54:55;4.60;99.90
21306;DHT22;10812;51.838;5.838;2023-04-25T04:57:23;4.60;99.90
21306;DHT22;10812;51.838;5.838;2023-04-25T04:59:51;4.70;99.90
21306;DHT22;10812;51.838;5.838;2023-04-25T05:02:20;4.90;99.90
21306;DHT22;10812;51.838;5.838;2023-04-25T05:04:48;4.90;99.90
21306;DHT22;10812;51.838;5.838;2023-04-25T05:07:17;5.00;99.90
21306;DHT22;10812;51.838;5.838;2023-04-25T05:09:46;5.00;99.90
21306;DHT22;10812;51.838;5.838;2023-04-25T05:12:14;5.20;99.90
21306;DHT22;10812;51.838;5.838;2023-04-25T05:14:42;5.40;99.90
21306;DHT22;10812;51.838;5.838;2023-04-25T05:17:11;5.40;99.90
21306;DHT22;10812;51.838;5.838;2023-04-25T05:19:39;5.50;99.90
21306;DHT22;10812;51.838;5.838;2023-04-25T05:22:07;5.60;99.90
21306;DHT22;10812;51.838;5.838;2023-04-25T05:24:35;5.70;99.90
21306;DHT22;10812;51.838;5.838;2023-04-25T05:27:05;5.80;99.90
21306;DHT22;10812;51.838;5.838;2023-04-25T05:29:33;5.90;99.90
21306;DHT22;10812;51.838;5.838;2023-04-25T05:32:02;5.90;99.90
21306;DHT22;10812;51.838;5.838;2023-04-25T05:34:30;6.00;99.90
21306;DHT22;10812;51.838;5.838;2023-04-25T05:43:46;6.10;99.90
21306;DHT22;10812;51.838;5.838;2023-04-25T05:46:16;6.20;99.90
21306;DHT22;10812;51.838;5.838;2023-04-25T05:48:45;6.30;99.90
21306;DHT22;10812;51.838;5.838;2023-04-25T05:51:13;6.30;99.90
21306;DHT22;10812;51.838;5.838;2023-04-25T05:53:41;6.40;99.90
21306;DHT22;10812;51.838;5.838;2023-04-25T05:56:09;6.40;99.90
21306;DHT22;10812;51.838;5.838;2023-04-25T05:58:38;6.50;99.90
21306;DHT22;10812;51.838;5.838;2023-04-25T06:01:07;6.40;99.90
21306;DHT22;10812;51.838;5.838;2023-04-25T06:03:35;6.50;99.90
21306;DHT22;10812;51.838;5.838;2023-04-25T06:06:05;6.60;99.90
21306;DHT22;10812;51.838;5.838;2023-04-25T06:08:34;6.60;99.90
21306;DHT22;10812;51.838;5.838;2023-04-25T06:11:02;6.70;99.90
21306;DHT22;10812;51.838;5.838;2023-04-25T06:13:30;6.70;99.90
21306;DHT22;10812;51.838;5.838;2023-04-25T06:15:58;6.70;99.90
21306;DHT22;10812;51.838;5.838;2023-04-25T06:18:28;6.80;99.90
21306;DHT22;10812;51.838;5.838;2023-04-25T06:20:57;6.80;99.90
21306;DHT22;10812;51.838;5.838;2023-04-25T06:23:25;6.90;99.90
21306;DHT22;10812;51.838;5.838;2023-04-25T06:25:53;6.90;99.90
21306;DHT22;10812;51.838;5.838;2023-04-25T06:28:21;6.80;99.90
21306;DHT22;10812;51.838;5.838;2023-04-25T06:30:51;7.00;99.90
21306;DHT22;10812;51.838;5.838;2023-04-25T06:33:19;7.20;99.90
21306;DHT22;10812;51.838;5.838;2023-04-25T06:35:49;7.40;99.90
21306;DHT22;10812;51.838;5.838;2023-04-25T06:38:17;8.30;99.90
21306;DHT22;10812;51.838;5.838;2023-04-25T06:40:45;9.20;99.90
21306;DHT22;10812;51.838;5.838;2023-04-25T06:43:14;9.90;99.90
21306;DHT22;10812;51.838;5.838;2023-04-25T06:45:42;11.50;99.90
21306;DHT22;10812;51.838;5.838;2023-04-25T06:48:13;12.50;99.90
21306;DHT22;10812;51.838;5.838;2023-04-25T06:50:42;13.50;99.90
21306;DHT22;10812;51.838;5.838;2023-04-25T06:53:11;14.40;99.90
21306;DHT22;10812;51.838;5.838;2023-04-25T06:55:39;14.10;99.90
21306;DHT22;10812;51.838;5.838;2023-04-25T06:58:08;13.90;99.90
21306;DHT22;10812;51.838;5.838;2023-04-25T07:00:36;12.90;99.90
21306;DHT22;10812;51.838;5.838;2023-04-25T07:03:04;11.50;99.90
21306;DHT22;10812;51.838;5.838;2023-04-25T07:05:32;10.70;99.90
21306;DHT22;10812;51.838;5.838;2023-04-25T07:08:00;10.70;99.90
21306;DHT22;10812;51.838;5.838;2023-04-25T07:10:31;11.90;99.90
21306;DHT22;10812;51.838;5.838;2023-04-25T07:12:59;11.90;99.90
21306;DHT22;10812;51.838;5.838;2023-04-25T07:15:27;11.70;99.90
21306;DHT22;10812;51.838;5.838;2023-04-25T07:17:55;11.70;99.90
21306;DHT22;10812;51.838;5.838;2023-04-25T07:20:25;12.80;99.90
21306;DHT22;10812;51.838;5.838;2023-04-25T07:22:54;12.30;99.90
21306;DHT22;10812;51.838;5.838;2023-04-25T07:25:22;11.70;99.90
21306;DHT22;10812;51.838;5.838;2023-04-25T07:27:52;11.10;99.90
21306;DHT22;10812;51.838;5.838;2023-04-25T07:30:20;10.20;99.90
21306;DHT22;10812;51.838;5.838;2023-04-25T07:32:49;9.80;99.90
21306;DHT22;10812;51.838;5.838;2023-04-25T07:35:18;10.10;99.90
21306;DHT22;10812;51.838;5.838;2023-04-25T07:37:46;10.50;99.90
21306;DHT22;10812;51.838;5.838;2023-04-25T07:40:14;11.20;99.90
21306;DHT22;10812;51.838;5.838;2023-04-25T07:42:43;11.30;99.90
21306;DHT22;10812;51.838;5.838;2023-04-25T07:45:12;11.60;99.90
21306;DHT22;10812;51.838;5.838;2023-04-25T07:47:41;12.60;99.90
21306;DHT22;10812;51.838;5.838;2023-04-25T07:50:09;13.10;99.90
21306;DHT22;10812;51.838;5.838;2023-04-25T07:52:38;12.90;99.90
21306;DHT22;10812;51.838;5.838;2023-04-25T07:55:06;13.20;99.90
21306;DHT22;10812;51.838;5.838;2023-04-25T07:57:34;14.20;99.90
21306;DHT22;10812;51.838;5.838;2023-04-25T08:00:03;14.40;99.90
21306;DHT22;10812;51.838;5.838;2023-04-25T08:02:37;14.50;99.90
21306;DHT22;10812;51.838;5.838;2023-04-25T08:05:06;14.10;99.90
21306;DHT22;10812;51.838;5.838;2023-04-25T08:07:38;14.20;99.90
21306;DHT22;10812;51.838;5.838;2023-04-25T08:25:24;10.50;99.90
21306;DHT22;10812;51.838;5.838;2023-04-25T08:27:52;10.20;99.90
21306;DHT22;10812;51.838;5.838;2023-04-25T08:30:20;11.00;99.90
21306;DHT22;10812;51.838;5.838;2023-04-25T08:32:48;11.00;99.90
21306;DHT22;10812;51.838;5.838;2023-04-25T08:35:17;11.50;99.90
21306;DHT22;10812;51.838;5.838;2023-04-25T08:37:45;12.10;99.90
21306;DHT22;10812;51.838;5.838;2023-04-25T08:40:14;12.80;99.90
21306;DHT22;10812;51.838;5.838;2023-04-25T08:42:45;13.00;99.90
21306;DHT22;10812;51.838;5.838;2023-04-25T08:45:14;13.30;99.90
21306;DHT22;10812;51.838;5.838;2023-04-25T08:47:45;13.80;99.90
21306;DHT22;10812;51.838;5.838;2023-04-25T08:50:17;14.50;99.90
21306;DHT22;10812;51.838;5.838;2023-04-25T08:52:47;14.80;99.90
21306;DHT22;10812;51.838;5.838;2023-04-25T08:55:19;15.10;99.90
21306;DHT22;10812;51.838;5.838;2023-04-25T08:57:49;15.90;98.20
21306;DHT22;10812;51.838;5.838;2023-04-25T09:00:18;15.30;98.60
21306;DHT22;10812;51.838;5.838;2023-04-25T09:02:47;14.60;99.60
21306;DHT22;10812;51.838;5.838;2023-04-25T09:05:15;14.30;99.90
21306;DHT22;10812;51.838;5.838;2023-04-25T09:07:47;13.80;99.90
21306;DHT22;10812;51.838;5.838;2023-04-25T09:10:16;12.70;99.90
21306;DHT22;10812;51.838;5.838;2023-04-25T09:12:44;12.20;99.90
21306;DHT22;10812;51.838;5.838;2023-04-25T09:15:21;11.70;99.90
21306;DHT22;10812;51.838;5.838;2023-04-25T09:17:55;11.30;99.90
21306;DHT22;10812;51.838;5.838;2023-04-25T09:20:24;11.00;99.90
21306;DHT22;10812;51.838;5.838;2023-04-25T09:23:02;11.50;99.90
21306;DHT22;10812;51.838;5.838;2023-04-25T09:25:34;11.90;99.90
21306;DHT22;10812;51.838;5.838;2023-04-25T09:28:06;12.10;99.90
21306;DHT22;10812;51.838;5.838;2023-04-25T09:30:36;11.60;99.90
21306;DHT22;10812;51.838;5.838;2023-04-25T09:33:07;11.30;99.90
21306;DHT22;10812;51.838;5.838;2023-04-25T09:35:36;11.20;99.90
21306;DHT22;10812;51.838;5.838;2023-04-25T09:38:10;11.50;99.90
21306;DHT22;10812;51.838;5.838;2023-04-25T09:40:40;12.70;99.90
21306;DHT22;10812;51.838;5.838;2023-04-25T09:43:18;13.10;99.90
21306;DHT22;10812;51.838;5.838;2023-04-25T09:45:49;11.90;99.90
21306;DHT22;10812;51.838;5.838;2023-04-25T09:48:19;11.60;99.90
21306;DHT22;10812;51.838;5.838;2023-04-25T09:51:04;11.80;99.90
21306;DHT22;10812;51.838;5.838;2023-04-25T09:53:33;11.70;99.90
21306;DHT22;10812;51.838;5.838;2023-04-25T09:56:04;11.30;99.90
21306;DHT22;10812;51.838;5.838;2023-04-25T09:58:34;11.00;99.90
21306;DHT22;10812;51.838;5.838;2023-04-25T10:01:05;10.80;99.90
21306;DHT22;10812;51.838;5.838;2023-04-25T10:03:36;10.30;99.90
21306;DHT22;10812;51.838;5.838;2023-04-25T10:06:08;10.50;99.90
21306;DHT22;10812;51.838;5.838;2023-04-25T10:08:38;10.70;99.90
21306;DHT22;10812;51.838;5.838;2023-04-25T10:14:48;10.70;99.90
21306;DHT22;10812;51.838;5.838;2023-04-25T10:17:20;11.10;99.90
21306;DHT22;10812;51.838;5.838;2023-04-25T10:19:48;11.20;99.90
21306;DHT22;10812;51.838;5.838;2023-04-25T10:22:20;11.70;99.90
21306;DHT22;10812;51.838;5.838;2023-04-25T10:24:51;12.00;99.90
21306;DHT22;10812;51.838;5.838;2023-04-25T10:27:20;12.60;99.90
21306;DHT22;10812;51.838;5.838;2023-04-25T10:30:00;12.70;99.30
21306;DHT22;10812;51.838;5.838;2023-04-25T10:32:32;12.60;97.10
21306;DHT22;10812;51.838;5.838;2023-04-25T10:35:11;12.70;97.80
21306;DHT22;10812;51.838;5.838;2023-04-25T10:37:58;12.30;96.80
21306;DHT22;10812;51.838;5.838;2023-04-25T10:40:26;11.70;99.10
21306;DHT22;10812;51.838;5.838;2023-04-25T10:42:55;11.60;99.90
21306;DHT22;10812;51.838;5.838;2023-04-25T10:45:23;11.30;99.90
21306;DHT22;10812;51.838;5.838;2023-04-25T10:47:54;11.10;99.90
21306;DHT22;10812;51.838;5.838;2023-04-25T10:50:37;11.30;99.90
21306;DHT22;10812;51.838;5.838;2023-04-25T10:53:14;11.20;99.90
21306;DHT22;10812;51.838;5.838;2023-04-25T10:55:49;11.10;99.90
21306;DHT22;10812;51.838;5.838;2023-04-25T10:58:22;10.80;99.90
21306;DHT22;10812;51.838;5.838;2023-04-25T11:00:50;10.70;99.90
21306;DHT22;10812;51.838;5.838;2023-04-25T11:03:24;10.50;99.90
21306;DHT22;10812;51.838;5.838;2023-04-25T11:05:54;10.70;99.90
21306;DHT22;10812;51.838;5.838;2023-04-25T11:08:36;11.10;99.90
21306;DHT22;10812;51.838;5.838;2023-04-25T11:11:08;11.50;99.90
21306;DHT22;10812;51.838;5.838;2023-04-25T11:13:36;11.20;99.90
21306;DHT22;10812;51.838;5.838;2023-04-25T11:16:07;10.90;99.90
21306;DHT22;10812;51.838;5.838;2023-04-25T11:18:42;10.90;99.90
21306;DHT22;10812;51.838;5.838;2023-04-25T11:21:11;11.20;99.90
21306;DHT22;10812;51.838;5.838;2023-04-25T11:23:39;11.30;99.90
21306;DHT22;10812;51.838;5.838;2023-04-25T11:26:07;11.20;99.90
21306;DHT22;10812;51.838;5.838;2023-04-25T11:28:36;11.20;99.90
21306;DHT22;10812;51.838;5.838;2023-04-25T11:31:10;11.40;99.90
21306;DHT22;10812;51.838;5.838;2023-04-25T11:33:38;11.10;99.90
21306;DHT22;10812;51.838;5.838;2023-04-25T11:36:09;11.40;99.90
21306;DHT22;10812;51.838;5.838;2023-04-25T11:38:38;11.60;99.90
21306;DHT22;10812;51.838;5.838;2023-04-25T11:41:07;11.60;99.90
21306;DHT22;10812;51.838;5.838;2023-04-25T11:43:35;11.60;99.90
21306;DHT22;10812;51.838;5.838;2023-04-25T11:46:06;11.70;99.90
21306;DHT22;10812;51.838;5.838;2023-04-25T11:48:37;11.80;99.90
21306;DHT22;10812;51.838;5.838;2023-04-25T11:51:06;11.80;99.90
21306;DHT22;10812;51.838;5.838;2023-04-25T11:53:36;11.90;99.90
21306;DHT22;10812;51.838;5.838;2023-04-25T11:56:09;12.20;99.90
21306;DHT22;10812;51.838;5.838;2023-04-25T11:58:56;12.10;98.70
21306;DHT22;10812;51.838;5.838;2023-04-25T12:01:28;12.10;99.80
21306;DHT22;10812;51.838;5.838;2023-04-25T12:04:11;11.90;99.60
21306;DHT22;10812;51.838;5.838;2023-04-25T12:06:41;11.70;99.90
21306;DHT22;10812;51.838;5.838;2023-04-25T12:09:14;11.70;99.90
21306;DHT22;10812;51.838;5.838;2023-04-25T12:11:45;11.60;99.90
21306;DHT22;10812;51.838;5.838;2023-04-25T12:14:21;11.90;99.90
21306;DHT22;10812;51.838;5.838;2023-04-25T12:16:51;12.00;99.10
21306;DHT22;10812;51.838;5.838;2023-04-25T12:19:20;12.10;99.00
21306;DHT22;10812;51.838;5.838;2023-04-25T12:21:49;12.00;99.50
21306;DHT22;10812;51.838;5.838;2023-04-25T12:24:26;11.90;99.90
21306;DHT22;10812;51.838;5.838;2023-04-25T12:26:59;11.60;99.90
21306;DHT22;10812;51.838;5.838;2023-04-25T12:29:30;11.30;99.90
21306;DHT22;10812;51.838;5.838;2023-04-25T12:32:14;11.30;99.90
21306;DHT22;10812;51.838;5.838;2023-04-25T12:34:42;11.30;99.90
21306;DHT22;10812;51.838;5.838;2023-04-25T12:37:13;11.30;99.90
21306;DHT22;10812;51.838;5.838;2023-04-25T12:39:44;11.40;99.90
21306;DHT22;10812;51.838;5.838;2023-04-25T12:42:15;11.20;99.90
21306;DHT22;10812;51.838;5.838;2023-04-25T12:44:45;11.40;99.90
21306;DHT22;10812;51.838;5.838;2023-04-25T12:47:14;11.40;99.90
21306;DHT22;10812;51.838;5.838;2023-04-25T12:49:43;11.40;99.90
21306;DHT22;10812;51.838;5.838;2023-04-25T12:52:11;11.50;99.90
21306;DHT22;10812;51.838;5.838;2023-04-25T12:54:39;12.00;99.90
21306;DHT22;10812;51.838;5.838;2023-04-25T12:57:09;12.20;99.90
21306;DHT22;10812;51.838;5.838;2023-04-25T12:59:38;12.10;99.90
21306;DHT22;10812;51.838;5.838;2023-04-25T13:02:06;12.00;99.90
21306;DHT22;10812;51.838;5.838;2023-04-25T13:04:34;11.60;99.90
21306;DHT22;10812;51.838;5.838;2023-04-25T13:07:03;11.60;99.90
21306;DHT22;10812;51.838;5.838;2023-04-25T13:09:32;11.60;99.90
21306;DHT22;10812;51.838;5.838;2023-04-25T13:12:00;11.50;99.50
21306;DHT22;10812;51.838;5.838;2023-04-25T13:14:30;11.80;99.90
21306;DHT22;10812;51.838;5.838;2023-04-25T13:16:58;12.00;99.70
21306;DHT22;10812;51.838;5.838;2023-04-25T13:27:08;11.30;99.90
21306;DHT22;10812;51.838;5.838;2023-04-25T13:29:38;11.20;99.90
21306;DHT22;10812;51.838;5.838;2023-04-25T13:51:34;11.40;99.90
21306;DHT22;10812;51.838;5.838;2023-04-25T13:54:03;11.30;99.90
